sensor_id;sensor_type;location;lat;lon;timestamp;pressure;altitude;pressure_sealevel;temperature;humidity
14293;BME280;62290;59.420;17.842;2023-03-01T00:00:02;102422.91;;;25.91;17.55
14293;BME280;62290;59.420;17.842;2023-03-01T00:02:37;102415.88;;;25.88;17.99
14293;BME280;62290;59.420;17.842;2023-03-01T00:05:05;102411.34;;;25.89;17.93
14293;BME280;62290;59.420;17.842;2023-03-01T00:07:35;102414.06;;;25.89;17.94
14293;BME280;62290;59.420;17.842;2023-03-01T00:10:03;102410.56;;;25.87;17.98
14293;BME280;62290;59.420;17.842;2023-03-01T00:12:31;102402.81;;;25.82;17.67
14293;BME280;62290;59.420;17.842;2023-03-01T00:14:59;102408.41;;;25.79;18.05
14293;BME280;62290;59.420;17.842;2023-03-01T00:17:27;102414.03;;;25.76;17.67
14293;BME280;62290;59.420;17.842;2023-03-01T00:19:55;102408.00;;;25.72;17.95
14293;BME280;62290;59.420;17.842;2023-03-01T00:22:23;102408.34;;;25.68;17.64
14293;BME280;62290;59.420;17.842;2023-03-01T00:24:53;102409.28;;;25.67;17.76
14293;BME280;62290;59.420;17.842;2023-03-01T00:27:21;102411.31;;;25.63;17.69
14293;BME280;62290;59.420;17.842;2023-03-01T00:29:49;102421.25;;;25.63;17.62
14293;BME280;62290;59.420;17.842;2023-03-01T00:32:17;102422.34;;;25.60;18.07
14293;BME280;62290;59.420;17.842;2023-03-01T00:34:45;102408.84;;;25.60;17.69
14293;BME280;62290;59.420;17.842;2023-03-01T00:37:20;102421.50;;;25.60;17.87
14293;BME280;62290;59.420;17.842;2023-03-01T00:39:48;102410.69;;;25.60;17.59
14293;BME280;62290;59.420;17.842;2023-03-01T00:42:18;102411.44;;;25.62;17.64
14293;BME280;62290;59.420;17.842;2023-03-01T00:44:46;102419.56;;;25.62;17.66
14293;BME280;62290;59.420;17.842;2023-03-01T00:47:14;102411.44;;;25.62;17.64
14293;BME280;62290;59.420;17.842;2023-03-01T00:49:42;102405.94;;;25.63;17.54
14293;BME280;62290;59.420;17.842;2023-03-01T00:52:10;102405.06;;;25.63;17.70
14293;BME280;62290;59.420;17.842;2023-03-01T00:54:38;102405.19;;;25.61;17.74
14293;BME280;62290;59.420;17.842;2023-03-01T00:57:06;102406.13;;;25.60;18.10
14293;BME280;62290;59.420;17.842;2023-03-01T00:59:35;102405.31;;;25.60;17.55
14293;BME280;62290;59.420;17.842;2023-03-01T01:02:03;102403.56;;;25.59;17.97
14293;BME280;62290;59.420;17.842;2023-03-01T01:04:31;102404.50;;;25.58;18.00
14293;BME280;62290;59.420;17.842;2023-03-01T01:06:59;102405.50;;;25.57;17.60
14293;BME280;62290;59.420;17.842;2023-03-01T01:09:27;102392.97;;;25.56;17.84
14293;BME280;62290;59.420;17.842;2023-03-01T01:11:55;102396.75;;;25.53;17.65
14293;BME280;62290;59.420;17.842;2023-03-01T01:14:23;102393.38;;;25.50;17.60
14293;BME280;62290;59.420;17.842;2023-03-01T01:16:53;102404.31;;;25.48;18.03
14293;BME280;62290;59.420;17.842;2023-03-01T01:19:22;102399.97;;;25.46;18.05
14293;BME280;62290;59.420;17.842;2023-03-01T01:21:50;102401.78;;;25.45;17.68
14293;BME280;62290;59.420;17.842;2023-03-01T01:24:19;102398.31;;;25.43;17.86
14293;BME280;62290;59.420;17.842;2023-03-01T01:26:47;102402.84;;;25.43;18.07
14293;BME280;62290;59.420;17.842;2023-03-01T01:29:15;102387.09;;;25.37;17.61
14293;BME280;62290;59.420;17.842;2023-03-01T01:31:43;102394.97;;;25.40;17.79
14293;BME280;62290;59.420;17.842;2023-03-01T01:34:15;102394.13;;;25.39;18.07
14293;BME280;62290;59.420;17.842;2023-03-01T01:36:48;102370.66;;;25.27;18.07
14293;BME280;62290;59.420;17.842;2023-03-01T01:39:16;102391.50;;;25.38;17.64
14293;BME280;62290;59.420;17.842;2023-03-01T01:41:44;102313.50;;;24.95;17.68
14293;BME280;62290;59.420;17.842;2023-03-01T01:44:16;102385.16;;;25.39;17.70
14293;BME280;62290;59.420;17.842;2023-03-01T01:46:46;102383.31;;;25.39;17.78
14293;BME280;62290;59.420;17.842;2023-03-01T01:49:24;102369.50;;;25.31;17.55
14293;BME280;62290;59.420;17.842;2023-03-01T01:51:59;102386.03;;;25.39;17.86
14293;BME280;62290;59.420;17.842;2023-03-01T01:54:33;102380.72;;;25.38;17.63
14293;BME280;62290;59.420;17.842;2023-03-01T01:57:11;102386.13;;;25.38;17.77
14293;BME280;62290;59.420;17.842;2023-03-01T01:59:43;102388.81;;;25.38;17.74
14293;BME280;62290;59.420;17.842;2023-03-01T02:02:13;102388.06;;;25.36;17.73
14293;BME280;62290;59.420;17.842;2023-03-01T02:04:43;102386.31;;;25.35;18.18
14293;BME280;62290;59.420;17.842;2023-03-01T02:07:14;102382.13;;;25.31;17.96
14293;BME280;62290;59.420;17.842;2023-03-01T02:09:46;102387.50;;;25.31;17.86
14293;BME280;62290;59.420;17.842;2023-03-01T02:12:18;102383.00;;;25.31;17.79
14293;BME280;62290;59.420;17.842;2023-03-01T02:14:46;102375.84;;;25.30;18.11
14293;BME280;62290;59.420;17.842;2023-03-01T02:17:15;102393.88;;;25.30;17.74
14293;BME280;62290;59.420;17.842;2023-03-01T02:19:52;102380.50;;;25.28;17.75
14293;BME280;62290;59.420;17.842;2023-03-01T02:22:24;102373.34;;;25.27;17.75
14293;BME280;62290;59.420;17.842;2023-03-01T02:25:02;102372.47;;;25.27;17.75
14293;BME280;62290;59.420;17.842;2023-03-01T02:27:39;102372.47;;;25.27;17.74
14293;BME280;62290;59.420;17.842;2023-03-01T02:30:10;102371.53;;;25.28;17.71
14293;BME280;62290;59.420;17.842;2023-03-01T02:32:40;102368.06;;;25.26;17.94
14293;BME280;62290;59.420;17.842;2023-03-01T02:35:09;102370.03;;;25.24;17.80
14293;BME280;62290;59.420;17.842;2023-03-01T02:37:38;102371.09;;;25.21;17.83
14293;BME280;62290;59.420;17.842;2023-03-01T02:40:09;102365.59;;;25.23;18.05
14293;BME280;62290;59.420;17.842;2023-03-01T02:42:45;102357.59;;;25.21;18.09
14293;BME280;62290;59.420;17.842;2023-03-01T02:45:16;102359.53;;;25.19;18.30
14293;BME280;62290;59.420;17.842;2023-03-01T02:47:44;102356.06;;;25.17;17.87
14293;BME280;62290;59.420;17.842;2023-03-01T02:50:22;102343.34;;;25.19;18.04
14293;BME280;62290;59.420;17.842;2023-03-01T02:52:56;102346.16;;;25.17;18.10
14293;BME280;62290;59.420;17.842;2023-03-01T02:55:27;102344.41;;;25.16;17.88
14293;BME280;62290;59.420;17.842;2023-03-01T02:57:56;102349.81;;;25.16;17.71
14293;BME280;62290;59.420;17.842;2023-03-01T03:00:31;102355.19;;;25.16;18.19
14293;BME280;62290;59.420;17.842;2023-03-01T03:03:00;102366.97;;;25.15;17.80
14293;BME280;62290;59.420;17.842;2023-03-01T03:05:30;102353.50;;;25.15;18.06
14293;BME280;62290;59.420;17.842;2023-03-01T03:08:00;102346.34;;;25.14;18.08
14293;BME280;62290;59.420;17.842;2023-03-01T03:10:35;102345.47;;;25.14;18.04
14293;BME280;62290;59.420;17.842;2023-03-01T03:13:06;102346.56;;;25.11;18.08
14293;BME280;62290;59.420;17.842;2023-03-01T03:15:36;102346.47;;;25.13;18.20
14293;BME280;62290;59.420;17.842;2023-03-01T03:18:07;102353.69;;;25.12;17.75
14293;BME280;62290;59.420;17.842;2023-03-01T03:20:36;102351.94;;;25.11;18.06
14293;BME280;62290;59.420;17.842;2023-03-01T03:23:05;102364.56;;;25.11;17.93
14293;BME280;62290;59.420;17.842;2023-03-01T03:25:33;102359.28;;;25.09;18.08
14293;BME280;62290;59.420;17.842;2023-03-01T03:28:05;102351.19;;;25.09;18.09
14293;BME280;62290;59.420;17.842;2023-03-01T03:30:39;102356.59;;;25.09;18.24
14293;BME280;62290;59.420;17.842;2023-03-01T03:33:09;102336.97;;;25.07;18.16
14293;BME280;62290;59.420;17.842;2023-03-01T03:35:42;102333.28;;;25.08;18.34
14293;BME280;62290;59.420;17.842;2023-03-01T03:38:12;102343.09;;;25.09;18.13
14293;BME280;62290;59.420;17.842;2023-03-01T03:40:45;102338.66;;;25.08;18.31
14293;BME280;62290;59.420;17.842;2023-03-01T03:43:15;102340.28;;;25.11;18.24
14293;BME280;62290;59.420;17.842;2023-03-01T03:45:45;102338.47;;;25.11;18.31
14293;BME280;62290;59.420;17.842;2023-03-01T03:48:14;102327.13;;;25.06;18.03
14293;BME280;62290;59.420;17.842;2023-03-01T03:50:48;102334.81;;;25.12;18.28
14293;BME280;62290;59.420;17.842;2023-03-01T03:53:16;102337.59;;;25.11;17.83
14293;BME280;62290;59.420;17.842;2023-03-01T03:55:44;102341.16;;;25.11;18.29
14293;BME280;62290;59.420;17.842;2023-03-01T03:58:16;102341.16;;;25.11;18.41
14293;BME280;62290;59.420;17.842;2023-03-01T04:00:49;102348.28;;;25.12;18.35
14293;BME280;62290;59.420;17.842;2023-03-01T04:03:18;102343.00;;;25.11;17.86
14293;BME280;62290;59.420;17.842;2023-03-01T04:05:47;102344.84;;;25.10;18.26
14293;BME280;62290;59.420;17.842;2023-03-01T04:08:17;102343.84;;;25.11;18.38
14293;BME280;62290;59.420;17.842;2023-03-01T04:10:48;102334.06;;;25.10;18.04
14293;BME280;62290;59.420;17.842;2023-03-01T04:13:20;102327.66;;;25.11;18.05
14293;BME280;62290;59.420;17.842;2023-03-01T04:15:50;102329.63;;;25.09;17.98
14293;BME280;62290;59.420;17.842;2023-03-01T04:18:20;102333.41;;;25.07;18.24
14293;BME280;62290;59.420;17.842;2023-03-01T04:20:48;102329.81;;;25.06;17.94
14293;BME280;62290;59.420;17.842;2023-03-01T04:23:19;102324.44;;;25.06;18.03
14293;BME280;62290;59.420;17.842;2023-03-01T04:25:50;102325.19;;;25.08;17.93
14293;BME280;62290;59.420;17.842;2023-03-01T04:28:21;102320.66;;;25.09;18.05
14293;BME280;62290;59.420;17.842;2023-03-01T04:30:54;102327.78;;;25.10;18.33
14293;BME280;62290;59.420;17.842;2023-03-01T04:33:23;102332.31;;;25.09;18.05
14293;BME280;62290;59.420;17.842;2023-03-01T04:35:51;102333.28;;;25.08;18.32
14293;BME280;62290;59.420;17.842;2023-03-01T04:38:19;102318.94;;;25.08;17.76
14293;BME280;62290;59.420;17.842;2023-03-01T04:40:48;102317.19;;;25.07;17.86
14293;BME280;62290;59.420;17.842;2023-03-01T04:43:16;102321.72;;;25.06;17.88
14293;BME280;62290;59.420;17.842;2023-03-01T04:45:44;102320.03;;;25.05;17.90
14293;BME280;62290;59.420;17.842;2023-03-01T04:48:13;102319.03;;;25.06;17.95
14293;BME280;62290;59.420;17.842;2023-03-01T04:50:41;102312.00;;;25.04;18.13
14293;BME280;62290;59.420;17.842;2023-03-01T04:53:09;102315.59;;;25.04;17.91
14293;BME280;62290;59.420;17.842;2023-03-01T04:55:37;102312.00;;;25.04;18.06
14293;BME280;62290;59.420;17.842;2023-03-01T04:58:05;102312.22;;;25.01;18.08
14293;BME280;62290;59.420;17.842;2023-03-01T05:00:33;102309.44;;;25.02;17.94
14293;BME280;62290;59.420;17.842;2023-03-01T05:03:01;102305.88;;;25.02;17.90
14293;BME280;62290;59.420;17.842;2023-03-01T05:05:33;102300.47;;;25.02;17.99
14293;BME280;62290;59.420;17.842;2023-03-01T05:08:04;102301.44;;;25.01;17.96
14293;BME280;62290;59.420;17.842;2023-03-01T05:10:34;102308.66;;;25.00;18.04
14293;BME280;62290;59.420;17.842;2023-03-01T05:13:03;102305.13;;;25.00;18.10
14293;BME280;62290;59.420;17.842;2023-03-01T05:15:32;102315.13;;;24.98;17.83
14293;BME280;62290;59.420;17.842;2023-03-01T05:18:00;102306.19;;;24.97;17.81
14293;BME280;62290;59.420;17.842;2023-03-01T05:20:31;102307.91;;;24.98;17.82
14293;BME280;62290;59.420;17.842;2023-03-01T05:23:03;102313.28;;;24.98;18.05
14293;BME280;62290;59.420;17.842;2023-03-01T05:25:33;102304.56;;;24.95;18.04
14293;BME280;62290;59.420;17.842;2023-03-01T05:28:11;102315.25;;;24.96;18.17
14293;BME280;62290;59.420;17.842;2023-03-01T05:30:39;102318.91;;;24.95;18.35
14293;BME280;62290;59.420;17.842;2023-03-01T05:33:08;102316.31;;;24.94;18.16
14293;BME280;62290;59.420;17.842;2023-03-01T05:35:42;102322.66;;;24.93;18.40
14293;BME280;62290;59.420;17.842;2023-03-01T05:38:12;102320.97;;;24.92;18.40
14293;BME280;62290;59.420;17.842;2023-03-01T05:40:41;102320.09;;;24.91;18.25
14293;BME280;62290;59.420;17.842;2023-03-01T05:43:10;102316.63;;;24.89;18.10
14293;BME280;62290;59.420;17.842;2023-03-01T05:45:39;102315.66;;;24.90;18.43
14293;BME280;62290;59.420;17.842;2023-03-01T05:48:09;102299.59;;;24.75;18.21
14293;BME280;62290;59.420;17.842;2023-03-01T05:50:39;102297.91;;;24.74;18.17
14293;BME280;62290;59.420;17.842;2023-03-01T05:53:10;102320.84;;;24.93;18.38
14293;BME280;62290;59.420;17.842;2023-03-01T05:55:39;102326.34;;;24.92;18.09
14293;BME280;62290;59.420;17.842;2023-03-01T05:58:09;102313.75;;;24.92;18.40
14293;BME280;62290;59.420;17.842;2023-03-01T06:00:37;102311.03;;;24.92;18.07
14293;BME280;62290;59.420;17.842;2023-03-01T06:03:06;102309.09;;;24.94;18.42
14293;BME280;62290;59.420;17.842;2023-03-01T06:05:34;102311.59;;;24.97;18.13
14293;BME280;62290;59.420;17.842;2023-03-01T06:08:02;102303.50;;;24.97;18.08
14293;BME280;62290;59.420;17.842;2023-03-01T06:10:32;102294.53;;;24.97;18.48
14293;BME280;62290;59.420;17.842;2023-03-01T06:13:00;102295.50;;;24.96;18.33
14293;BME280;62290;59.420;17.842;2023-03-01T06:15:28;102300.81;;;24.97;18.44
14293;BME280;62290;59.420;17.842;2023-03-01T06:17:56;102308.03;;;24.97;17.95
14293;BME280;62290;59.420;17.842;2023-03-01T06:20:28;102311.47;;;24.99;18.34
14293;BME280;62290;59.420;17.842;2023-03-01T06:22:57;102307.91;;;24.98;18.34
14293;BME280;62290;59.420;17.842;2023-03-01T06:25:27;102280.03;;;24.85;18.09
14293;BME280;62290;59.420;17.842;2023-03-01T06:27:56;102307.03;;;24.98;18.32
14293;BME280;62290;59.420;17.842;2023-03-01T06:30:25;102278.63;;;24.80;17.83
14293;BME280;62290;59.420;17.842;2023-03-01T06:32:54;102314.16;;;24.99;18.07
14293;BME280;62290;59.420;17.842;2023-03-01T06:35:28;102306.19;;;24.97;18.15
14293;BME280;62290;59.420;17.842;2023-03-01T06:37:58;102311.47;;;24.99;17.85
14293;BME280;62290;59.420;17.842;2023-03-01T06:40:27;102297.56;;;24.92;17.83
14293;BME280;62290;59.420;17.842;2023-03-01T06:42:56;102314.84;;;25.02;18.08
14293;BME280;62290;59.420;17.842;2023-03-01T06:45:25;102320.03;;;25.05;17.84
14293;BME280;62290;59.420;17.842;2023-03-01T06:48:01;102318.94;;;25.08;18.19
14293;BME280;62290;59.420;17.842;2023-03-01T06:50:30;102311.06;;;25.05;17.95
14293;BME280;62290;59.420;17.842;2023-03-01T06:52:58;102282.53;;;24.88;18.04
14293;BME280;62290;59.420;17.842;2023-03-01T06:55:26;102314.38;;;25.08;18.20
14293;BME280;62290;59.420;17.842;2023-03-01T06:57:54;102304.59;;;25.07;17.97
14293;BME280;62290;59.420;17.842;2023-03-01T07:00:26;102304.69;;;25.06;17.96
14293;BME280;62290;59.420;17.842;2023-03-01T07:02:54;102314.94;;;25.13;18.09
14293;BME280;62290;59.420;17.842;2023-03-01T07:05:22;102310.53;;;25.12;18.15
14293;BME280;62290;59.420;17.842;2023-03-01T07:07:50;102313.09;;;25.14;17.99
14293;BME280;62290;59.420;17.842;2023-03-01T07:10:18;102317.63;;;25.13;18.01
14293;BME280;62290;59.420;17.842;2023-03-01T07:12:46;102309.34;;;25.16;17.99
14293;BME280;62290;59.420;17.842;2023-03-01T07:15:15;102311.06;;;25.17;17.67
14293;BME280;62290;59.420;17.842;2023-03-01T07:17:44;102319.91;;;25.20;18.09
14293;BME280;62290;59.420;17.842;2023-03-01T07:20:14;102311.81;;;25.20;18.06
14293;BME280;62290;59.420;17.842;2023-03-01T07:22:42;102304.69;;;25.18;17.77
14293;BME280;62290;59.420;17.842;2023-03-01T07:25:10;102314.53;;;25.20;17.70
14293;BME280;62290;59.420;17.842;2023-03-01T07:27:38;102317.22;;;25.20;17.88
14293;BME280;62290;59.420;17.842;2023-03-01T07:30:08;102312.56;;;25.22;17.60
14293;BME280;62290;59.420;17.842;2023-03-01T07:32:36;102312.56;;;25.22;17.84
14293;BME280;62290;59.420;17.842;2023-03-01T07:35:06;102317.88;;;25.23;17.78
14293;BME280;62290;59.420;17.842;2023-03-01T07:37:35;102325.22;;;25.21;17.82
14293;BME280;62290;59.420;17.842;2023-03-01T07:40:03;102329.63;;;25.22;17.99
14293;BME280;62290;59.420;17.842;2023-03-01T07:42:31;102321.53;;;25.22;17.43
14293;BME280;62290;59.420;17.842;2023-03-01T07:44:59;102322.41;;;25.23;17.63
14293;BME280;62290;59.420;17.842;2023-03-01T07:47:27;102319.72;;;25.23;17.74
14293;BME280;62290;59.420;17.842;2023-03-01T07:49:55;102316.88;;;25.24;17.95
14293;BME280;62290;59.420;17.842;2023-03-01T07:52:25;102313.34;;;25.24;18.01
14293;BME280;62290;59.420;17.842;2023-03-01T07:54:53;102309.66;;;25.25;17.82
14293;BME280;62290;59.420;17.842;2023-03-01T07:57:21;102312.28;;;25.26;17.54
14293;BME280;62290;59.420;17.842;2023-03-01T07:59:49;102310.41;;;25.27;17.93
14293;BME280;62290;59.420;17.842;2023-03-01T08:02:17;102309.25;;;25.31;17.88
14293;BME280;62290;59.420;17.842;2023-03-01T08:04:45;102309.88;;;25.34;17.68
14293;BME280;62290;59.420;17.842;2023-03-01T08:07:13;102307.09;;;25.36;18.00
14293;BME280;62290;59.420;17.842;2023-03-01T08:09:42;102308.59;;;25.40;18.08
14293;BME280;62290;59.420;17.842;2023-03-01T08:12:10;102310.19;;;25.42;17.79
14293;BME280;62290;59.420;17.842;2023-03-01T08:14:38;102305.38;;;25.47;18.00
14293;BME280;62290;59.420;17.842;2023-03-01T08:17:06;102307.00;;;25.50;18.21
14293;BME280;62290;59.420;17.842;2023-03-01T08:19:35;102310.34;;;25.53;17.96
14293;BME280;62290;59.420;17.842;2023-03-01T08:22:03;102315.53;;;25.56;17.76
14293;BME280;62290;59.420;17.842;2023-03-01T08:24:31;102311.75;;;25.59;18.10
14293;BME280;62290;59.420;17.842;2023-03-01T08:27:01;102310.78;;;25.60;18.13
14293;BME280;62290;59.420;17.842;2023-03-01T08:29:30;102310.78;;;25.60;18.20
14293;BME280;62290;59.420;17.842;2023-03-01T08:31:59;102310.78;;;25.60;17.72
14293;BME280;62290;59.420;17.842;2023-03-01T08:34:27;102307.31;;;25.58;17.81
14293;BME280;62290;59.420;17.842;2023-03-01T08:36:55;102313.03;;;25.66;18.00
14293;BME280;62290;59.420;17.842;2023-03-01T08:39:23;102303.75;;;25.70;18.03
14293;BME280;62290;59.420;17.842;2023-03-01T08:41:51;102305.59;;;25.69;18.07
14293;BME280;62290;59.420;17.842;2023-03-01T08:44:21;102300.06;;;25.71;18.23
14293;BME280;62290;59.420;17.842;2023-03-01T08:46:50;102288.31;;;25.72;18.30
14293;BME280;62290;59.420;17.842;2023-03-01T08:49:20;102294.38;;;25.75;17.79
14293;BME280;62290;59.420;17.842;2023-03-01T08:51:48;102300.28;;;25.81;17.75
14293;BME280;62290;59.420;17.842;2023-03-01T08:54:18;102296.28;;;25.86;18.19
14293;BME280;62290;59.420;17.842;2023-03-01T08:56:47;102295.19;;;25.89;18.08
14293;BME280;62290;59.420;17.842;2023-03-01T08:59:16;102294.13;;;25.91;18.00
14293;BME280;62290;59.420;17.842;2023-03-01T09:01:46;102292.16;;;25.93;17.86
14293;BME280;62290;59.420;17.842;2023-03-01T09:04:15;102295.59;;;25.95;17.59
14293;BME280;62290;59.420;17.842;2023-03-01T09:06:43;102288.16;;;25.99;17.84
14293;BME280;62290;59.420;17.842;2023-03-01T09:09:14;102289.75;;;26.01;17.87
14293;BME280;62290;59.420;17.842;2023-03-01T09:11:43;102279.91;;;26.00;17.79
14293;BME280;62290;59.420;17.842;2023-03-01T09:14:13;102286.06;;;26.02;17.42
14293;BME280;62290;59.420;17.842;2023-03-01T09:16:41;102276.13;;;26.03;17.68
14293;BME280;62290;59.420;17.842;2023-03-01T09:19:11;102265.97;;;26.06;18.13
14293;BME280;62290;59.420;17.842;2023-03-01T09:21:39;102273.72;;;26.11;17.90
14293;BME280;62290;59.420;17.842;2023-03-01T09:24:12;102274.19;;;26.17;17.92
14293;BME280;62290;59.420;17.842;2023-03-01T09:26:41;102265.50;;;26.25;18.27
14293;BME280;62290;59.420;17.842;2023-03-01T09:29:09;102259.63;;;26.31;17.78
14293;BME280;62290;59.420;17.842;2023-03-01T09:31:37;102255.72;;;26.35;18.16
14293;BME280;62290;59.420;17.842;2023-03-01T09:34:06;102265.31;;;26.39;18.15
14293;BME280;62290;59.420;17.842;2023-03-01T09:36:35;102260.66;;;26.41;18.07
14293;BME280;62290;59.420;17.842;2023-03-01T09:39:04;102260.66;;;26.41;18.16
14293;BME280;62290;59.420;17.842;2023-03-01T09:41:45;102262.38;;;26.42;17.93
14293;BME280;62290;59.420;17.842;2023-03-01T09:44:23;102263.03;;;26.46;17.81
14293;BME280;62290;59.420;17.842;2023-03-01T09:46:53;102249.38;;;26.47;17.89
14293;BME280;62290;59.420;17.842;2023-03-01T09:49:25;102244.41;;;26.54;17.53
14293;BME280;62290;59.420;17.842;2023-03-01T09:51:59;102244.91;;;26.59;17.74
14293;BME280;62290;59.420;17.842;2023-03-01T09:54:28;102239.50;;;26.59;17.90
14293;BME280;62290;59.420;17.842;2023-03-01T09:57:06;102237.41;;;26.62;17.62
14293;BME280;62290;59.420;17.842;2023-03-01T09:59:47;102238.25;;;26.63;17.74
14293;BME280;62290;59.420;17.842;2023-03-01T10:02:25;102231.16;;;26.62;17.39
14293;BME280;62290;59.420;17.842;2023-03-01T10:05:05;102237.28;;;26.64;17.44
14293;BME280;62290;59.420;17.842;2023-03-01T10:07:45;102236.28;;;26.65;17.35
14293;BME280;62290;59.420;17.842;2023-03-01T10:10:21;102236.28;;;26.65;17.66
14293;BME280;62290;59.420;17.842;2023-03-01T10:12:52;102231.03;;;26.63;17.33
14293;BME280;62290;59.420;17.842;2023-03-01T10:15:25;102199.75;;;26.48;17.65
14293;BME280;62290;59.420;17.842;2023-03-01T10:18:01;102228.94;;;26.67;17.20
14293;BME280;62290;59.420;17.842;2023-03-01T10:20:42;102230.44;;;26.71;17.58
14293;BME280;62290;59.420;17.842;2023-03-01T10:23:13;102228.47;;;26.73;17.56
14293;BME280;62290;59.420;17.842;2023-03-01T10:25:49;102228.22;;;26.76;17.14
14293;BME280;62290;59.420;17.842;2023-03-01T10:28:25;102213.34;;;26.70;17.28
14293;BME280;62290;59.420;17.842;2023-03-01T10:30:58;102214.69;;;26.76;17.39
14293;BME280;62290;59.420;17.842;2023-03-01T10:33:30;102206.38;;;26.79;17.50
14293;BME280;62290;59.420;17.842;2023-03-01T10:35:58;102211.94;;;26.77;17.50
14293;BME280;62290;59.420;17.842;2023-03-01T10:38:30;102220.66;;;26.81;17.48
14293;BME280;62290;59.420;17.842;2023-03-01T10:41:00;102214.38;;;26.80;17.34
14293;BME280;62290;59.420;17.842;2023-03-01T10:43:44;102206.38;;;26.79;17.46
14293;BME280;62290;59.420;17.842;2023-03-01T10:46:24;102208.34;;;26.77;17.33
14293;BME280;62290;59.420;17.842;2023-03-01T10:49:14;102210.28;;;26.75;17.12
14293;BME280;62290;59.420;17.842;2023-03-01T10:51:45;102210.28;;;26.75;17.11
14293;BME280;62290;59.420;17.842;2023-03-01T10:54:20;102211.06;;;26.77;16.91
14293;BME280;62290;59.420;17.842;2023-03-01T10:56:50;102210.16;;;26.76;16.97
14293;BME280;62290;59.420;17.842;2023-03-01T10:59:25;102208.34;;;26.77;17.07
14293;BME280;62290;59.420;17.842;2023-03-01T11:02:04;102203.88;;;26.76;16.81
14293;BME280;62290;59.420;17.842;2023-03-01T11:05:01;102196.22;;;26.70;16.98
14293;BME280;62290;59.420;17.842;2023-03-01T11:07:29;102214.69;;;26.76;16.94
14293;BME280;62290;59.420;17.842;2023-03-01T11:09:59;102211.06;;;26.77;17.18
14293;BME280;62290;59.420;17.842;2023-03-01T11:12:27;102215.56;;;26.76;17.18
14293;BME280;62290;59.420;17.842;2023-03-01T11:14:57;102201.13;;;26.77;17.17
14293;BME280;62290;59.420;17.842;2023-03-01T11:17:28;102207.34;;;26.78;16.86
14293;BME280;62290;59.420;17.842;2023-03-01T11:20:13;102200.00;;;26.80;16.69
14293;BME280;62290;59.420;17.842;2023-03-01T11:22:47;102170.66;;;26.63;16.65
14293;BME280;62290;59.420;17.842;2023-03-01T11:25:19;102194.69;;;26.78;16.88
14293;BME280;62290;59.420;17.842;2023-03-01T11:27:49;102175.09;;;26.64;16.92
14293;BME280;62290;59.420;17.842;2023-03-01T11:30:20;102193.84;;;26.78;17.49
14293;BME280;62290;59.420;17.842;2023-03-01T11:33:01;102195.69;;;26.77;18.16
14293;BME280;62290;59.420;17.842;2023-03-01T11:35:31;102184.44;;;26.71;19.62
14293;BME280;62290;59.420;17.842;2023-03-01T11:38:12;102191.22;;;26.76;20.42
14293;BME280;62290;59.420;17.842;2023-03-01T11:40:47;102189.50;;;26.75;21.12
14293;BME280;62290;59.420;17.842;2023-03-01T11:43:28;102189.50;;;26.75;21.60
14293;BME280;62290;59.420;17.842;2023-03-01T11:46:27;102187.59;;;26.77;22.73
14293;BME280;62290;59.420;17.842;2023-03-01T11:49:09;102182.47;;;26.73;22.50
14293;BME280;62290;59.420;17.842;2023-03-01T11:51:51;102179.53;;;26.76;21.77
14293;BME280;62290;59.420;17.842;2023-03-01T11:54:33;102165.06;;;26.77;21.68
14293;BME280;62290;59.420;17.842;2023-03-01T11:57:17;102163.09;;;26.79;21.13
14293;BME280;62290;59.420;17.842;2023-03-01T12:03:11;102151.06;;;26.83;20.79
14293;BME280;62290;59.420;17.842;2023-03-01T12:06:00;102155.50;;;26.84;20.17
14293;BME280;62290;59.420;17.842;2023-03-01T12:08:36;102144.66;;;26.84;20.10
14293;BME280;62290;59.420;17.842;2023-03-01T12:11:18;102151.81;;;26.85;20.27
14293;BME280;62290;59.420;17.842;2023-03-01T12:14:07;102149.13;;;26.85;19.70
14293;BME280;62290;59.420;17.842;2023-03-01T12:16:50;102147.13;;;26.87;19.47
14293;BME280;62290;59.420;17.842;2023-03-01T12:19:33;102139.03;;;26.87;19.50
14293;BME280;62290;59.420;17.842;2023-03-01T12:22:24;102128.31;;;26.85;19.73
14293;BME280;62290;59.420;17.842;2023-03-01T12:25:16;102137.78;;;26.91;19.53
14293;BME280;62290;59.420;17.842;2023-03-01T12:28:01;102131.41;;;26.92;19.52
14293;BME280;62290;59.420;17.842;2023-03-01T12:30:45;102078.34;;;26.67;19.12
14293;BME280;62290;59.420;17.842;2023-03-01T12:33:22;102121.31;;;26.94;18.86
14293;BME280;62290;59.420;17.842;2023-03-01T12:39:19;102112.94;;;26.97;19.13
14293;BME280;62290;59.420;17.842;2023-03-01T12:41:59;102118.59;;;26.94;19.22
14293;BME280;62290;59.420;17.842;2023-03-01T12:44:37;102114.06;;;26.94;18.71
14293;BME280;62290;59.420;17.842;2023-03-01T12:47:23;102105.06;;;26.94;19.00
14293;BME280;62290;59.420;17.842;2023-03-01T12:49:57;102108.03;;;26.91;18.64
14293;BME280;62290;59.420;17.842;2023-03-01T12:52:33;102095.09;;;26.83;19.08
14293;BME280;62290;59.420;17.842;2023-03-01T12:55:08;102090.19;;;26.88;18.61
14293;BME280;62290;59.420;17.842;2023-03-01T12:57:46;102093.03;;;26.87;19.07
14293;BME280;62290;59.420;17.842;2023-03-01T13:00:27;102082.44;;;26.84;18.75
14293;BME280;62290;59.420;17.842;2023-03-01T13:03:01;102083.44;;;26.83;18.55
14293;BME280;62290;59.420;17.842;2023-03-01T13:05:40;102082.44;;;26.84;18.77
14293;BME280;62290;59.420;17.842;2023-03-01T13:08:19;102087.00;;;26.83;18.90